sensor_id;sensor_type;location;lat;lon;timestamp;P1;durP1;ratioP1;P2;durP2;ratioP2
47529;SDS011;33272;51.922;7.730;2023-02-28T00:00:13;8.30;;;5.53;;
47529;SDS011;33272;51.922;7.730;2023-02-28T00:02:41;8.10;;;5.27;;
47529;SDS011;33272;51.922;7.730;2023-02-28T00:05:12;9.07;;;5.40;;
47529;SDS011;33272;51.922;7.730;2023-02-28T00:07:41;7.17;;;5.20;;
47529;SDS011;33272;51.922;7.730;2023-02-28T00:10:10;7.17;;;5.30;;
47529;SDS011;33272;51.922;7.730;2023-02-28T00:12:40;8.97;;;5.77;;
47529;SDS011;33272;51.922;7.730;2023-02-28T00:15:08;6.73;;;5.83;;
47529;SDS011;33272;51.922;7.730;2023-02-28T00:17:37;8.13;;;5.27;;
47529;SDS011;33272;51.922;7.730;2023-02-28T00:20:05;6.47;;;4.93;;
47529;SDS011;33272;51.922;7.730;2023-02-28T00:22:35;8.40;;;5.80;;
47529;SDS011;33272;51.922;7.730;2023-02-28T00:25:03;7.77;;;5.67;;
47529;SDS011;33272;51.922;7.730;2023-02-28T00:27:33;7.73;;;5.23;;
47529;SDS011;33272;51.922;7.730;2023-02-28T00:30:05;16.27;;;8.97;;
47529;SDS011;33272;51.922;7.730;2023-02-28T00:32:35;10.77;;;7.43;;
47529;SDS011;33272;51.922;7.730;2023-02-28T00:35:04;13.47;;;7.53;;
47529;SDS011;33272;51.922;7.730;2023-02-28T00:37:33;11.23;;;8.30;;
47529;SDS011;33272;51.922;7.730;2023-02-28T00:40:00;9.87;;;6.90;;
47529;SDS011;33272;51.922;7.730;2023-02-28T00:42:30;12.47;;;7.30;;
47529;SDS011;33272;51.922;7.730;2023-02-28T00:44:58;10.37;;;7.07;;
47529;SDS011;33272;51.922;7.730;2023-02-28T00:47:25;13.37;;;8.00;;
47529;SDS011;33272;51.922;7.730;2023-02-28T00:49:53;10.77;;;6.77;;
47529;SDS011;33272;51.922;7.730;2023-02-28T00:52:20;8.43;;;6.37;;
47529;SDS011;33272;51.922;7.730;2023-02-28T00:54:47;13.23;;;7.00;;
47529;SDS011;33272;51.922;7.730;2023-02-28T00:57:14;11.17;;;7.50;;
47529;SDS011;33272;51.922;7.730;2023-02-28T00:59:41;9.50;;;6.57;;
47529;SDS011;33272;51.922;7.730;2023-02-28T01:02:09;7.40;;;6.13;;
47529;SDS011;33272;51.922;7.730;2023-02-28T01:04:37;8.97;;;6.67;;
47529;SDS011;33272;51.922;7.730;2023-02-28T01:07:04;9.87;;;5.47;;
47529;SDS011;33272;51.922;7.730;2023-02-28T01:09:31;7.57;;;5.47;;
47529;SDS011;33272;51.922;7.730;2023-02-28T01:11:58;6.67;;;5.37;;
47529;SDS011;33272;51.922;7.730;2023-02-28T01:14:25;8.73;;;6.13;;
47529;SDS011;33272;51.922;7.730;2023-02-28T01:16:52;7.57;;;5.50;;
47529;SDS011;33272;51.922;7.730;2023-02-28T01:19:20;9.30;;;5.80;;
47529;SDS011;33272;51.922;7.730;2023-02-28T01:21:47;7.27;;;5.40;;
47529;SDS011;33272;51.922;7.730;2023-02-28T01:24:14;8.43;;;6.17;;
47529;SDS011;33272;51.922;7.730;2023-02-28T01:26:41;8.47;;;6.23;;
47529;SDS011;33272;51.922;7.730;2023-02-28T01:29:08;7.20;;;5.33;;
47529;SDS011;33272;51.922;7.730;2023-02-28T01:31:35;6.93;;;5.20;;
47529;SDS011;33272;51.922;7.730;2023-02-28T01:34:03;8.13;;;5.57;;
47529;SDS011;33272;51.922;7.730;2023-02-28T01:36:31;7.20;;;5.83;;
47529;SDS011;33272;51.922;7.730;2023-02-28T01:38:58;13.60;;;5.50;;
47529;SDS011;33272;51.922;7.730;2023-02-28T01:41:26;7.13;;;4.90;;
47529;SDS011;33272;51.922;7.730;2023-02-28T01:44:03;7.57;;;5.30;;
47529;SDS011;33272;51.922;7.730;2023-02-28T01:46:33;9.30;;;5.73;;
47529;SDS011;33272;51.922;7.730;2023-02-28T01:49:04;8.10;;;4.93;;
47529;SDS011;33272;51.922;7.730;2023-02-28T01:51:37;9.77;;;5.10;;
47529;SDS011;33272;51.922;7.730;2023-02-28T01:54:10;8.03;;;5.53;;
47529;SDS011;33272;51.922;7.730;2023-02-28T01:56:43;8.80;;;5.70;;
47529;SDS011;33272;51.922;7.730;2023-02-28T01:59:14;6.97;;;5.27;;
47529;SDS011;33272;51.922;7.730;2023-02-28T02:01:48;8.23;;;5.67;;
47529;SDS011;33272;51.922;7.730;2023-02-28T02:04:15;11.67;;;5.73;;
47529;SDS011;33272;51.922;7.730;2023-02-28T02:06:44;6.73;;;5.20;;
47529;SDS011;33272;51.922;7.730;2023-02-28T02:09:13;7.07;;;5.20;;
47529;SDS011;33272;51.922;7.730;2023-02-28T02:11:41;8.90;;;5.50;;
47529;SDS011;33272;51.922;7.730;2023-02-28T02:14:12;9.23;;;5.63;;
47529;SDS011;33272;51.922;7.730;2023-02-28T02:17:05;7.53;;;5.23;;
47529;SDS011;33272;51.922;7.730;2023-02-28T02:29:23;7.40;;;5.30;;
47529;SDS011;33272;51.922;7.730;2023-02-28T02:32:40;7.30;;;5.33;;
47529;SDS011;33272;51.922;7.730;2023-02-28T02:35:39;9.10;;;5.83;;
47529;SDS011;33272;51.922;7.730;2023-02-28T02:38:15;7.30;;;5.30;;
47529;SDS011;33272;51.922;7.730;2023-02-28T02:40:54;8.60;;;5.10;;
47529;SDS011;33272;51.922;7.730;2023-02-28T02:43:29;7.67;;;5.77;;
47529;SDS011;33272;51.922;7.730;2023-02-28T02:46:02;7.77;;;5.70;;
47529;SDS011;33272;51.922;7.730;2023-02-28T02:48:34;8.50;;;5.77;;
47529;SDS011;33272;51.922;7.730;2023-02-28T02:51:07;7.93;;;5.43;;
47529;SDS011;33272;51.922;7.730;2023-02-28T02:53:40;5.90;;;5.10;;
47529;SDS011;33272;51.922;7.730;2023-02-28T02:56:14;6.53;;;5.10;;
47529;SDS011;33272;51.922;7.730;2023-02-28T02:58:44;10.73;;;5.53;;
47529;SDS011;33272;51.922;7.730;2023-02-28T03:01:17;8.70;;;4.77;;
47529;SDS011;33272;51.922;7.730;2023-02-28T03:03:52;7.53;;;4.93;;
47529;SDS011;33272;51.922;7.730;2023-02-28T03:06:24;10.50;;;6.40;;
47529;SDS011;33272;51.922;7.730;2023-02-28T03:08:52;17.80;;;8.87;;
47529;SDS011;33272;51.922;7.730;2023-02-28T03:11:19;10.93;;;6.67;;
47529;SDS011;33272;51.922;7.730;2023-02-28T03:13:59;9.10;;;6.07;;
47529;SDS011;33272;51.922;7.730;2023-02-28T03:16:49;10.83;;;5.13;;
47529;SDS011;33272;51.922;7.730;2023-02-28T03:19:47;7.50;;;5.40;;
47529;SDS011;33272;51.922;7.730;2023-02-28T03:22:42;8.20;;;5.33;;
47529;SDS011;33272;51.922;7.730;2023-02-28T03:25:19;6.90;;;5.00;;
47529;SDS011;33272;51.922;7.730;2023-02-28T03:27:55;8.53;;;5.07;;
47529;SDS011;33272;51.922;7.730;2023-02-28T03:30:33;8.37;;;5.60;;
47529;SDS011;33272;51.922;7.730;2023-02-28T03:33:08;8.90;;;5.10;;
47529;SDS011;33272;51.922;7.730;2023-02-28T03:35:39;8.10;;;5.77;;
47529;SDS011;33272;51.922;7.730;2023-02-28T03:38:12;9.53;;;5.80;;
47529;SDS011;33272;51.922;7.730;2023-02-28T03:40:46;7.97;;;5.50;;
47529;SDS011;33272;51.922;7.730;2023-02-28T03:43:19;9.23;;;5.60;;
47529;SDS011;33272;51.922;7.730;2023-02-28T03:45:53;7.53;;;5.53;;
47529;SDS011;33272;51.922;7.730;2023-02-28T03:48:23;8.23;;;5.70;;
47529;SDS011;33272;51.922;7.730;2023-02-28T03:50:57;8.77;;;6.00;;
47529;SDS011;33272;51.922;7.730;2023-02-28T03:53:29;17.30;;;11.10;;
47529;SDS011;33272;51.922;7.730;2023-02-28T03:56:01;23.40;;;12.97;;
47529;SDS011;33272;51.922;7.730;2023-02-28T03:58:35;22.47;;;11.70;;
47529;SDS011;33272;51.922;7.730;2023-02-28T04:01:08;8.77;;;7.23;;
47529;SDS011;33272;51.922;7.730;2023-02-28T04:03:41;6.53;;;5.20;;
47529;SDS011;33272;51.922;7.730;2023-02-28T04:06:12;9.10;;;6.90;;
47529;SDS011;33272;51.922;7.730;2023-02-28T04:08:45;8.57;;;6.07;;
47529;SDS011;33272;51.922;7.730;2023-02-28T04:11:16;10.53;;;6.30;;
47529;SDS011;33272;51.922;7.730;2023-02-28T04:13:48;8.73;;;6.20;;
47529;SDS011;33272;51.922;7.730;2023-02-28T04:16:16;6.67;;;5.23;;
47529;SDS011;33272;51.922;7.730;2023-02-28T04:18:43;7.53;;;5.60;;
47529;SDS011;33272;51.922;7.730;2023-02-28T04:21:10;8.87;;;5.73;;
47529;SDS011;33272;51.922;7.730;2023-02-28T04:23:38;7.87;;;5.60;;
47529;SDS011;33272;51.922;7.730;2023-02-28T04:26:06;8.90;;;5.30;;
47529;SDS011;33272;51.922;7.730;2023-02-28T04:28:33;8.30;;;5.60;;
47529;SDS011;33272;51.922;7.730;2023-02-28T04:31:01;7.33;;;5.50;;
47529;SDS011;33272;51.922;7.730;2023-02-28T04:33:31;7.70;;;5.30;;
47529;SDS011;33272;51.922;7.730;2023-02-28T04:35:59;7.50;;;5.50;;
47529;SDS011;33272;51.922;7.730;2023-02-28T04:38:28;7.10;;;5.40;;
47529;SDS011;33272;51.922;7.730;2023-02-28T04:40:56;7.90;;;5.20;;
47529;SDS011;33272;51.922;7.730;2023-02-28T04:43:25;7.47;;;5.30;;
47529;SDS011;33272;51.922;7.730;2023-02-28T04:45:52;7.93;;;5.07;;
47529;SDS011;33272;51.922;7.730;2023-02-28T04:48:21;7.97;;;5.30;;
47529;SDS011;33272;51.922;7.730;2023-02-28T04:50:49;6.47;;;5.07;;
47529;SDS011;33272;51.922;7.730;2023-02-28T04:53:16;6.50;;;5.30;;
47529;SDS011;33272;51.922;7.730;2023-02-28T04:55:44;7.83;;;5.50;;
47529;SDS011;33272;51.922;7.730;2023-02-28T04:58:12;8.13;;;5.17;;
47529;SDS011;33272;51.922;7.730;2023-02-28T05:00:42;10.10;;;5.80;;
47529;SDS011;33272;51.922;7.730;2023-02-28T05:03:09;7.40;;;5.20;;
47529;SDS011;33272;51.922;7.730;2023-02-28T05:05:36;8.20;;;5.47;;
47529;SDS011;33272;51.922;7.730;2023-02-28T05:08:04;11.93;;;5.87;;
47529;SDS011;33272;51.922;7.730;2023-02-28T05:10:31;9.03;;;5.73;;
47529;SDS011;33272;51.922;7.730;2023-02-28T05:12:58;8.03;;;5.13;;
47529;SDS011;33272;51.922;7.730;2023-02-28T05:15:25;7.30;;;5.00;;
47529;SDS011;33272;51.922;7.730;2023-02-28T05:17:53;6.20;;;5.60;;
47529;SDS011;33272;51.922;7.730;2023-02-28T05:20:20;6.87;;;4.97;;
47529;SDS011;33272;51.922;7.730;2023-02-28T05:22:47;6.57;;;5.23;;
47529;SDS011;33272;51.922;7.730;2023-02-28T05:25:16;5.63;;;4.90;;
47529;SDS011;33272;51.922;7.730;2023-02-28T05:27:45;6.67;;;4.90;;
47529;SDS011;33272;51.922;7.730;2023-02-28T05:30:12;10.33;;;5.67;;
47529;SDS011;33272;51.922;7.730;2023-02-28T05:32:40;6.90;;;4.90;;
47529;SDS011;33272;51.922;7.730;2023-02-28T05:35:10;7.23;;;5.40;;
47529;SDS011;33272;51.922;7.730;2023-02-28T05:37:38;8.20;;;5.43;;
47529;SDS011;33272;51.922;7.730;2023-02-28T05:40:05;7.83;;;5.23;;
47529;SDS011;33272;51.922;7.730;2023-02-28T05:42:35;7.57;;;5.47;;
47529;SDS011;33272;51.922;7.730;2023-02-28T05:45:02;6.50;;;5.03;;
47529;SDS011;33272;51.922;7.730;2023-02-28T05:47:31;9.53;;;5.73;;
47529;SDS011;33272;51.922;7.730;2023-02-28T05:49:59;8.77;;;5.10;;
47529;SDS011;33272;51.922;7.730;2023-02-28T05:52:27;9.40;;;5.37;;
47529;SDS011;33272;51.922;7.730;2023-02-28T05:54:55;7.70;;;5.20;;
47529;SDS011;33272;51.922;7.730;2023-02-28T05:57:22;8.90;;;5.10;;
47529;SDS011;33272;51.922;7.730;2023-02-28T05:59:49;5.97;;;5.03;;
47529;SDS011;33272;51.922;7.730;2023-02-28T06:02:17;7.90;;;5.50;;
47529;SDS011;33272;51.922;7.730;2023-02-28T06:04:44;9.70;;;5.30;;
47529;SDS011;33272;51.922;7.730;2023-02-28T06:07:12;6.87;;;5.13;;
47529;SDS011;33272;51.922;7.730;2023-02-28T06:09:40;6.67;;;4.87;;
47529;SDS011;33272;51.922;7.730;2023-02-28T06:12:07;8.80;;;4.90;;
47529;SDS011;33272;51.922;7.730;2023-02-28T06:14:35;9.20;;;5.20;;
47529;SDS011;33272;51.922;7.730;2023-02-28T06:17:03;6.30;;;4.83;;
47529;SDS011;33272;51.922;7.730;2023-02-28T06:19:30;7.63;;;4.63;;
47529;SDS011;33272;51.922;7.730;2023-02-28T06:21:58;10.20;;;5.03;;
47529;SDS011;33272;51.922;7.730;2023-02-28T06:24:26;8.00;;;5.23;;
47529;SDS011;33272;51.922;7.730;2023-02-28T06:26:55;7.90;;;5.13;;
47529;SDS011;33272;51.922;7.730;2023-02-28T06:29:23;7.03;;;5.00;;
47529;SDS011;33272;51.922;7.730;2023-02-28T06:31:50;9.47;;;5.30;;
47529;SDS011;33272;51.922;7.730;2023-02-28T06:34:18;9.30;;;5.87;;
47529;SDS011;33272;51.922;7.730;2023-02-28T06:36:45;9.93;;;5.73;;
47529;SDS011;33272;51.922;7.730;2023-02-28T06:39:12;7.10;;;4.67;;
47529;SDS011;33272;51.922;7.730;2023-02-28T06:41:39;10.73;;;5.50;;
47529;SDS011;33272;51.922;7.730;2023-02-28T06:44:08;8.40;;;5.27;;
47529;SDS011;33272;51.922;7.730;2023-02-28T06:46:39;10.33;;;6.17;;
47529;SDS011;33272;51.922;7.730;2023-02-28T06:49:06;8.63;;;5.23;;
47529;SDS011;33272;51.922;7.730;2023-02-28T06:51:34;7.77;;;5.40;;
47529;SDS011;33272;51.922;7.730;2023-02-28T06:54:02;9.63;;;5.80;;
47529;SDS011;33272;51.922;7.730;2023-02-28T06:56:33;9.97;;;5.57;;
47529;SDS011;33272;51.922;7.730;2023-02-28T06:59:01;11.83;;;6.13;;
47529;SDS011;33272;51.922;7.730;2023-02-28T07:01:30;10.60;;;6.53;;
47529;SDS011;33272;51.922;7.730;2023-02-28T07:03:58;12.87;;;7.00;;
47529;SDS011;33272;51.922;7.730;2023-02-28T07:06:26;9.50;;;6.67;;
47529;SDS011;33272;51.922;7.730;2023-02-28T07:08:54;9.60;;;5.80;;
47529;SDS011;33272;51.922;7.730;2023-02-28T07:11:21;7.07;;;5.37;;
47529;SDS011;33272;51.922;7.730;2023-02-28T07:13:51;7.80;;;5.90;;
47529;SDS011;33272;51.922;7.730;2023-02-28T07:16:19;8.50;;;5.90;;
47529;SDS011;33272;51.922;7.730;2023-02-28T07:18:47;7.60;;;5.63;;
47529;SDS011;33272;51.922;7.730;2023-02-28T07:21:15;10.43;;;6.47;;
47529;SDS011;33272;51.922;7.730;2023-02-28T07:23:42;9.57;;;6.07;;
47529;SDS011;33272;51.922;7.730;2023-02-28T07:26:10;8.43;;;5.50;;
47529;SDS011;33272;51.922;7.730;2023-02-28T07:28:40;8.37;;;5.50;;
47529;SDS011;33272;51.922;7.730;2023-02-28T07:31:07;6.97;;;5.93;;
47529;SDS011;33272;51.922;7.730;2023-02-28T07:33:35;6.90;;;5.33;;
47529;SDS011;33272;51.922;7.730;2023-02-28T07:36:06;10.23;;;5.53;;
47529;SDS011;33272;51.922;7.730;2023-02-28T07:38:39;8.80;;;5.43;;
47529;SDS011;33272;51.922;7.730;2023-02-28T07:41:06;7.30;;;6.10;;
47529;SDS011;33272;51.922;7.730;2023-02-28T07:43:33;7.70;;;6.13;;
47529;SDS011;33272;51.922;7.730;2023-02-28T07:46:01;7.47;;;5.33;;
47529;SDS011;33272;51.922;7.730;2023-02-28T07:48:30;7.00;;;4.60;;
47529;SDS011;33272;51.922;7.730;2023-02-28T07:50:58;8.87;;;6.03;;
47529;SDS011;33272;51.922;7.730;2023-02-28T07:53:27;5.33;;;4.60;;
47529;SDS011;33272;51.922;7.730;2023-02-28T07:55:55;9.27;;;4.67;;
47529;SDS011;33272;51.922;7.730;2023-02-28T07:58:23;6.57;;;4.10;;
47529;SDS011;33272;51.922;7.730;2023-02-28T08:00:51;5.50;;;4.10;;
47529;SDS011;33272;51.922;7.730;2023-02-28T08:03:18;6.60;;;4.07;;
47529;SDS011;33272;51.922;7.730;2023-02-28T08:05:47;6.90;;;4.50;;
47529;SDS011;33272;51.922;7.730;2023-02-28T08:08:14;5.33;;;4.63;;
47529;SDS011;33272;51.922;7.730;2023-02-28T08:10:44;5.63;;;3.50;;
47529;SDS011;33272;51.922;7.730;2023-02-28T08:13:11;4.77;;;4.10;;
47529;SDS011;33272;51.922;7.730;2023-02-28T08:15:40;4.50;;;3.73;;
47529;SDS011;33272;51.922;7.730;2023-02-28T08:18:07;5.93;;;3.80;;
47529;SDS011;33272;51.922;7.730;2023-02-28T08:20:34;6.30;;;4.27;;
47529;SDS011;33272;51.922;7.730;2023-02-28T08:23:01;6.03;;;4.03;;
47529;SDS011;33272;51.922;7.730;2023-02-28T08:25:28;5.90;;;3.80;;
47529;SDS011;33272;51.922;7.730;2023-02-28T08:27:56;5.97;;;4.07;;
47529;SDS011;33272;51.922;7.730;2023-02-28T08:30:23;5.17;;;4.13;;
47529;SDS011;33272;51.922;7.730;2023-02-28T08:32:50;4.20;;;3.20;;
47529;SDS011;33272;51.922;7.730;2023-02-28T08:35:17;4.93;;;3.73;;
47529;SDS011;33272;51.922;7.730;2023-02-28T08:37:44;4.07;;;3.67;;
47529;SDS011;33272;51.922;7.730;2023-02-28T08:40:14;4.23;;;3.60;;
47529;SDS011;33272;51.922;7.730;2023-02-28T08:42:43;5.77;;;3.70;;
47529;SDS011;33272;51.922;7.730;2023-02-28T08:45:12;5.80;;;3.10;;
47529;SDS011;33272;51.922;7.730;2023-02-28T08:47:39;3.97;;;2.90;;
47529;SDS011;33272;51.922;7.730;2023-02-28T08:50:07;4.80;;;3.00;;
47529;SDS011;33272;51.922;7.730;2023-02-28T08:52:35;4.33;;;2.70;;
47529;SDS011;33272;51.922;7.730;2023-02-28T08:55:03;4.60;;;2.80;;
47529;SDS011;33272;51.922;7.730;2023-02-28T08:57:31;3.77;;;2.70;;
47529;SDS011;33272;51.922;7.730;2023-02-28T08:59:58;4.07;;;3.17;;
47529;SDS011;33272;51.922;7.730;2023-02-28T09:02:28;3.63;;;2.43;;
47529;SDS011;33272;51.922;7.730;2023-02-28T09:04:55;7.27;;;3.53;;
47529;SDS011;33272;51.922;7.730;2023-02-28T09:07:22;7.70;;;3.70;;
47529;SDS011;33272;51.922;7.730;2023-02-28T09:09:49;2.47;;;2.00;;
47529;SDS011;33272;51.922;7.730;2023-02-28T09:12:23;3.63;;;2.20;;
47529;SDS011;33272;51.922;7.730;2023-02-28T09:14:52;2.63;;;2.00;;
47529;SDS011;33272;51.922;7.730;2023-02-28T09:17:20;3.27;;;2.00;;
47529;SDS011;33272;51.922;7.730;2023-02-28T09:19:49;2.37;;;2.00;;
47529;SDS011;33272;51.922;7.730;2023-02-28T09:22:16;3.17;;;2.10;;
47529;SDS011;33272;51.922;7.730;2023-02-28T09:24:43;2.40;;;1.63;;
47529;SDS011;33272;51.922;7.730;2023-02-28T09:27:10;2.30;;;1.60;;
47529;SDS011;33272;51.922;7.730;2023-02-28T09:29:37;2.63;;;1.53;;
47529;SDS011;33272;51.922;7.730;2023-02-28T09:32:04;2.27;;;1.70;;
47529;SDS011;33272;51.922;7.730;2023-02-28T09:34:31;2.17;;;1.77;;
47529;SDS011;33272;51.922;7.730;2023-02-28T09:37:00;1.70;;;1.33;;
47529;SDS011;33272;51.922;7.730;2023-02-28T09:39:27;1.77;;;1.67;;
47529;SDS011;33272;51.922;7.730;2023-02-28T09:41:54;1.87;;;1.47;;
47529;SDS011;33272;51.922;7.730;2023-02-28T09:44:24;2.33;;;1.57;;
47529;SDS011;33272;51.922;7.730;2023-02-28T09:46:58;3.07;;;1.67;;
47529;SDS011;33272;51.922;7.730;2023-02-28T09:49:33;2.50;;;1.60;;
47529;SDS011;33272;51.922;7.730;2023-02-28T09:52:09;1.80;;;1.40;;
47529;SDS011;33272;51.922;7.730;2023-02-28T09:54:39;1.67;;;1.57;;
47529;SDS011;33272;51.922;7.730;2023-02-28T09:57:08;1.87;;;1.40;;
47529;SDS011;33272;51.922;7.730;2023-02-28T09:59:50;2.50;;;1.80;;
47529;SDS011;33272;51.922;7.730;2023-02-28T10:02:46;1.37;;;1.27;;
47529;SDS011;33272;51.922;7.730;2023-02-28T10:05:31;1.53;;;1.40;;
47529;SDS011;33272;51.922;7.730;2023-02-28T10:08:08;1.43;;;1.23;;
47529;SDS011;33272;51.922;7.730;2023-02-28T10:10:41;6.70;;;1.60;;
47529;SDS011;33272;51.922;7.730;2023-02-28T10:13:15;2.57;;;1.50;;
47529;SDS011;33272;51.922;7.730;2023-02-28T10:15:51;1.90;;;1.47;;
47529;SDS011;33272;51.922;7.730;2023-02-28T10:18:23;1.87;;;1.40;;
47529;SDS011;33272;51.922;7.730;2023-02-28T10:20:56;3.40;;;1.47;;
47529;SDS011;33272;51.922;7.730;2023-02-28T10:23:28;2.33;;;1.40;;
47529;SDS011;33272;51.922;7.730;2023-02-28T10:26:01;2.63;;;1.60;;
47529;SDS011;33272;51.922;7.730;2023-02-28T10:28:37;1.63;;;1.43;;
47529;SDS011;33272;51.922;7.730;2023-02-28T10:31:04;2.70;;;1.50;;
47529;SDS011;33272;51.922;7.730;2023-02-28T10:33:31;2.23;;;1.50;;
47529;SDS011;33272;51.922;7.730;2023-02-28T10:36:01;2.67;;;1.40;;
47529;SDS011;33272;51.922;7.730;2023-02-28T10:38:34;3.20;;;1.83;;
47529;SDS011;33272;51.922;7.730;2023-02-28T10:41:04;1.87;;;1.30;;
47529;SDS011;33272;51.922;7.730;2023-02-28T10:43:34;2.47;;;1.70;;
47529;SDS011;33272;51.922;7.730;2023-02-28T10:46:02;2.30;;;1.40;;
47529;SDS011;33272;51.922;7.730;2023-02-28T10:48:38;2.30;;;1.50;;
47529;SDS011;33272;51.922;7.730;2023-02-28T10:51:08;2.73;;;1.73;;
47529;SDS011;33272;51.922;7.730;2023-02-28T10:53:45;2.73;;;1.70;;
47529;SDS011;33272;51.922;7.730;2023-02-28T10:56:16;1.50;;;1.40;;
47529;SDS011;33272;51.922;7.730;2023-02-28T10:58:53;2.10;;;1.73;;
47529;SDS011;33272;51.922;7.730;2023-02-28T11:01:24;1.70;;;1.60;;
47529;SDS011;33272;51.922;7.730;2023-02-28T11:04:15;2.10;;;1.50;;
47529;SDS011;33272;51.922;7.730;2023-02-28T11:06:46;1.73;;;1.50;;
47529;SDS011;33272;51.922;7.730;2023-02-28T11:09:18;2.80;;;1.57;;
47529;SDS011;33272;51.922;7.730;2023-02-28T11:11:54;2.00;;;1.57;;
47529;SDS011;33272;51.922;7.730;2023-02-28T11:14:21;2.20;;;1.53;;
47529;SDS011;33272;51.922;7.730;2023-02-28T11:16:51;3.43;;;2.00;;
47529;SDS011;33272;51.922;7.730;2023-02-28T11:19:20;2.33;;;1.53;;
47529;SDS011;33272;51.922;7.730;2023-02-28T11:21:52;1.70;;;1.20;;
47529;SDS011;33272;51.922;7.730;2023-02-28T11:24:24;1.73;;;1.30;;
47529;SDS011;33272;51.922;7.730;2023-02-28T11:26:55;1.97;;;1.20;;
47529;SDS011;33272;51.922;7.730;2023-02-28T11:29:23;1.77;;;1.43;;
47529;SDS011;33272;51.922;7.730;2023-02-28T11:34:59;1.90;;;1.20;;
47529;SDS011;33272;51.922;7.730;2023-02-28T11:37:31;2.37;;;1.40;;
47529;SDS011;33272;51.922;7.730;2023-02-28T11:40:00;1.43;;;1.23;;
47529;SDS011;33272;51.922;7.730;2023-02-28T11:42:31;4.33;;;1.20;;
47529;SDS011;33272;51.922;7.730;2023-02-28T11:45:19;1.90;;;1.60;;
47529;SDS011;33272;51.922;7.730;2023-02-28T11:48:04;1.70;;;1.37;;
47529;SDS011;33272;51.922;7.730;2023-02-28T11:50:42;2.10;;;1.60;;
47529;SDS011;33272;51.922;7.730;2023-02-28T11:53:21;2.23;;;1.60;;
47529;SDS011;33272;51.922;7.730;2023-02-28T11:56:03;2.67;;;2.20;;
47529;SDS011;33272;51.922;7.730;2023-02-28T11:58:42;3.93;;;2.37;;
47529;SDS011;33272;51.922;7.730;2023-02-28T12:01:21;2.17;;;1.97;;
47529;SDS011;33272;51.922;7.730;2023-02-28T12:04:10;2.97;;;1.90;;
47529;SDS011;33272;51.922;7.730;2023-02-28T12:06:49;2.47;;;1.80;;
47529;SDS011;33272;51.922;7.730;2023-02-28T12:09:33;2.70;;;1.93;;
47529;SDS011;33272;51.922;7.730;2023-02-28T12:12:18;2.30;;;1.77;;
47529;SDS011;33272;51.922;7.730;2023-02-28T12:17:51;2.50;;;1.70;;
47529;SDS011;33272;51.922;7.730;2023-02-28T12:20:37;3.30;;;2.00;;
47529;SDS011;33272;51.922;7.730;2023-02-28T12:23:21;3.07;;;1.87;;
47529;SDS011;33272;51.922;7.730;2023-02-28T12:26:14;2.30;;;2.00;;
47529;SDS011;33272;51.922;7.730;2023-02-28T12:28:50;2.60;;;2.00;;
47529;SDS011;33272;51.922;7.730;2023-02-28T12:31:20;3.10;;;2.30;;
47529;SDS011;33272;51.922;7.730;2023-02-28T12:33:52;2.03;;;1.83;;
47529;SDS011;33272;51.922;7.730;2023-02-28T12:36:25;3.17;;;2.77;;
47529;SDS011;33272;51.922;7.730;2023-02-28T12:38:54;3.10;;;2.30;;
47529;SDS011;33272;51.922;7.730;2023-02-28T12:41:29;2.63;;;2.17;;
47529;SDS011;33272;51.922;7.730;2023-02-28T12:44:05;2.50;;;1.90;;
47529;SDS011;33272;51.922;7.730;2023-02-28T12:46:38;3.10;;;2.30;;
47529;SDS011;33272;51.922;7.730;2023-02-28T12:49:10;3.27;;;2.37;;
47529;SDS011;33272;51.922;7.730;2023-02-28T12:51:43;3.90;;;2.67;;
47529;SDS011;33272;51.922;7.730;2023-02-28T12:54:14;2.60;;;2.10;;
47529;SDS011;33272;51.922;7.730;2023-02-28T12:56:53;3.13;;;1.97;;
47529;SDS011;33272;51.922;7.730;2023-02-28T12:59:32;2.43;;;1.70;;
47529;SDS011;33272;51.922;7.730;2023-02-28T13:02:18;2.50;;;1.90;;
47529;SDS011;33272;51.922;7.730;2023-02-28T13:05:26;2.50;;;1.53;;
47529;SDS011;33272;51.922;7.730;2023-02-28T13:08:29;2.00;;;1.60;;
47529;SDS011;33272;51.922;7.730;2023-02-28T13:11:31;2.77;;;1.50;;
47529;SDS011;33272;51.922;7.730;2023-02-28T13:14:05;1.73;;;1.50;;
47529;SDS011;33272;51.922;7.730;2023-02-28T13:16:54;2.73;;;1.70;;
47529;SDS011;33272;51.922;7.730;2023-02-28T13:19:26;2.37;;;1.53;;
47529;SDS011;33272;51.922;7.730;2023-02-28T13:21:56;2.40;;;1.60;;
47529;SDS011;33272;51.922;7.730;2023-02-28T13:24:36;1.60;;;1.50;;
47529;SDS011;33272;51.922;7.730;2023-02-28T13:27:11;2.27;;;1.80;;
47529;SDS011;33272;51.922;7.730;2023-02-28T13:33:29;2.03;;;1.83;;
47529;SDS011;33272;51.922;7.730;2023-02-28T13:36:08;1.97;;;1.73;;
47529;SDS011;33272;51.922;7.730;2023-02-28T13:38:54;1.97;;;1.70;;
47529;SDS011;33272;51.922;7.730;2023-02-28T13:41:46;2.53;;;1.53;;
47529;SDS011;33272;51.922;7.730;2023-02-28T13:44:15;3.00;;;1.80;;
47529;SDS011;33272;51.922;7.730;2023-02-28T13:49:48;2.07;;;1.40;;
47529;SDS011;33272;51.922;7.730;2023-02-28T13:52:18;1.97;;;1.70;;
47529;SDS011;33272;51.922;7.730;2023-02-28T13:57:59;1.93;;;1.73;;
47529;SDS011;33272;51.922;7.730;2023-02-28T14:00:46;3.50;;;1.67;;
47529;SDS011;33272;51.922;7.730;2023-02-28T14:03:43;1.93;;;1.73;;
47529;SDS011;33272;51.922;7.730;2023-02-28T14:06:34;3.30;;;2.27;;
47529;SDS011;33272;51.922;7.730;2023-02-28T14:09:06;2.57;;;1.50;;
47529;SDS011;33272;51.922;7.730;2023-02-28T14:11:48;2.03;;;1.70;;
47529;SDS011;33272;51.922;7.730;2023-02-28T14:17:22;4.80;;;1.77;;
47529;SDS011;33272;51.922;7.730;2023-02-28T14:19:52;1.80;;;1.53;;
47529;SDS011;33272;51.922;7.730;2023-02-28T14:22:25;4.60;;;2.00;;
47529;SDS011;33272;51.922;7.730;2023-02-28T14:25:17;2.07;;;1.70;;
47529;SDS011;33272;51.922;7.730;2023-02-28T14:27:55;2.00;;;1.80;;
47529;SDS011;33272;51.922;7.730;2023-02-28T14:33:44;2.70;;;1.70;;
47529;SDS011;33272;51.922;7.730;2023-02-28T14:36:31;1.90;;;1.63;;
47529;SDS011;33272;51.922;7.730;2023-02-28T14:39:04;2.83;;;1.77;;
47529;SDS011;33272;51.922;7.730;2023-02-28T14:41:34;1.90;;;1.70;;
47529;SDS011;33272;51.922;7.730;2023-02-28T14:44:13;2.30;;;1.60;;
47529;SDS011;33272;51.922;7.730;2023-02-28T14:46:43;2.63;;;1.70;;
47529;SDS011;33272;51.922;7.730;2023-02-28T14:49:16;2.97;;;1.70;;
47529;SDS011;33272;51.922;7.730;2023-02-28T14:51:47;2.53;;;1.70;;
47529;SDS011;33272;51.922;7.730;2023-02-28T14:54:19;3.43;;;1.70;;
47529;SDS011;33272;51.922;7.730;2023-02-28T14:56:49;2.70;;;1.93;;
47529;SDS011;33272;51.922;7.730;2023-02-28T14:59:23;2.10;;;1.90;;
47529;SDS011;33272;51.922;7.730;2023-02-28T15:04:42;3.87;;;2.10;;
47529;SDS011;33272;51.922;7.730;2023-02-28T15:07:09;3.20;;;2.17;;
47529;SDS011;33272;51.922;7.730;2023-02-28T15:09:40;2.23;;;1.80;;
47529;SDS011;33272;51.922;7.730;2023-02-28T15:12:07;2.10;;;1.90;;
47529;SDS011;33272;51.922;7.730;2023-02-28T15:14:41;2.20;;;2.00;;
47529;SDS011;33272;51.922;7.730;2023-02-28T15:17:11;4.10;;;1.93;;
47529;SDS011;33272;51.922;7.730;2023-02-28T15:19:47;2.30;;;1.70;;
47529;SDS011;33272;51.922;7.730;2023-02-28T15:22:18;2.07;;;1.87;;
47529;SDS011;33272;51.922;7.730;2023-02-28T15:24:55;3.07;;;2.07;;
47529;SDS011;33272;51.922;7.730;2023-02-28T15:27:23;2.43;;;2.10;;
47529;SDS011;33272;51.922;7.730;2023-02-28T15:29:55;2.47;;;1.90;;
47529;SDS011;33272;51.922;7.730;2023-02-28T15:32:26;1.60;;;1.50;;
47529;SDS011;33272;51.922;7.730;2023-02-28T15:34:56;2.53;;;1.80;;
47529;SDS011;33272;51.922;7.730;2023-02-28T15:37:29;1.80;;;1.70;;
47529;SDS011;33272;51.922;7.730;2023-02-28T15:40:10;3.17;;;2.27;;
47529;SDS011;33272;51.922;7.730;2023-02-28T15:42:41;3.57;;;2.30;;
47529;SDS011;33272;51.922;7.730;2023-02-28T15:48:00;3.67;;;1.90;;
47529;SDS011;33272;51.922;7.730;2023-02-28T15:50:27;3.33;;;1.97;;